MHTGTNCM

Guest
Details From MHTG - Tegucigalpa Toncontin Intl
To TNCM - St Maarten - Princess Juliana Intl
Flight Number -
Tags decoded
Created
Modified
Stats Distance 1,479 nm / 2,738 km
Max Altitude 0 ft / 0 m
Waypoints 6
Social Downloads 0
Likes 0
Share VATSIM

Download

Looking for another format? Having issues loading an existing format? Contact us
Advertisement - Login to hide

Notes

Requested: MHTG BTO MLY PSE JUICE TNCM

Route

MHTG BTO MLY PSE JUICE TNCM

ID Type Via Altitude Latitude Longitude Leg Dist Tot Dist Heading (true) Name
O MHTG APT - 0 ft / 0 m 14.06088˚ -87.21720˚ - 0 nm - Tegucigalpa Toncontin Intl
BTO VOR - 0 ft / 0 m 15.73676˚ -86.86397˚ 102 nm 102 nm 11° / 12° BONITO VOR-DME
MLY VOR - 0 ft / 0 m 17.93025˚ -76.77764˚ 594 nm 697 nm 76° / 79° MANLEY VOR-DME
PSE VOR - 0 ft / 0 m 17.99244˚ -66.51917˚ 586 nm 1283 nm 88° / 91° PONCE VOR-DME
JUICE FIX - 0 ft / 0 m 18.13094˚ -63.66667˚ 163 nm 1446 nm 87° / 88° -
O TNCM APT - 0 ft / 0 m 18.04089˚ -63.10897˚ 32 nm 1478 nm 100° / 100° St Maarten - Princess Juliana Intl

Altitude Profile

Advertisement - Login to hide

Weather


0- 5 10 15 20 25 30 35+ Temperature / ° C

Clouds and Precipitation
Forecast for 2018-05-20 12:00 UTC. Updated 3 hours ago

Ground ~20,000 ft ~40,000 ft Winds

MHTG

Details ICAO MHTG (TGU)
Name Tegucigalpa Toncontin Intl
Region Honduras
Timezone America/Tegucigalpa (UTC-6.0)
Stats Elevation 3,294 ft / 1,004 m (AMSL)
Location 14.060883° -87.217197°
Runways 1
Magnetic Variation 0.720° W

METAR

MHTG 201400Z 24004KT 9999 FEW008 BKN250 21/19 Q1018 A3006 NOSIG

Decode

TAF

Not found

Departure Runways

ID Width Length Bearing (true) Bearing (mag) Surface Threshold Offset Overrun Length
02 148 ft / 45 m 6,140 ft / 1,872 m 18.87° 19.59° Asphalt 670 ft / 204 m 100 ft / 30 m
20 148 ft / 45 m 6,140 ft / 1,872 m 198.87° 199.59° Asphalt 0 ft / 0 m 200 ft / 61 m

TNCM

Details ICAO TNCM (SXM)
Name St Maarten - Princess Juliana Intl
Region Caribbean Netherlands, Aruba, Curaçao, Sint Maarten
Timezone Unknown (UTC+0.0)
Stats Elevation 12 ft / 4 m (AMSL)
Location 18.040889° -63.108974°
Runways 1
Magnetic Variation 14.337° W

METAR

TNCM 201400Z 09013KT 050V140 9999 SCT018 28/21 Q1019 A3009 NOSIG

Decode

TAF

TAF TAF TNCM 201132Z 2012/2112 07010KT P6SM SCT018 FM201300 09015KT P6SM VCSH SCT020 FM202300 09010KT P6SM SCT018

Decode

Destination Runways

ID Width Length Bearing (true) Bearing (mag) Surface Threshold Offset Overrun Length
10 148 ft / 45 m 7,464 ft / 2,275 m 81.43° 95.77° Asphalt 0 ft / 0 m 151 ft / 46 m
28 148 ft / 45 m 7,464 ft / 2,275 m 261.44° 275.78° Asphalt 397 ft / 121 m 0 ft / 0 m

Popular Alternatives